createdAt,value
2023-03-20T00:00:40.501Z,8.13
2023-03-20T00:04:40.652Z,9.2
2023-03-20T00:08:40.721Z,8.77
2023-03-20T00:12:40.624Z,6.65
2023-03-20T00:16:40.419Z,7.3
2023-03-20T00:20:39.775Z,7.35
2023-03-20T00:24:41.103Z,6.37
2023-03-20T00:28:40.620Z,5.05
2023-03-20T00:32:41.275Z,7.43
2023-03-20T00:36:40.377Z,6.6
2023-03-20T00:40:40.882Z,11.9
2023-03-20T00:44:42.403Z,6.72
2023-03-20T00:48:40.785Z,8.88
2023-03-20T00:52:41.231Z,5.62
2023-03-20T00:56:40.564Z,10.4
2023-03-20T01:00:41.151Z,6.55
2023-03-20T01:04:40.556Z,7.37
2023-03-20T01:08:40.604Z,7.32
2023-03-20T01:12:40.501Z,5.22
2023-03-20T01:16:40.985Z,6.75
2023-03-20T01:20:40.548Z,7.05
2023-03-20T01:24:40.824Z,7.78
2023-03-20T01:28:40.519Z,5.32
2023-03-20T01:32:40.450Z,5.37
2023-03-20T01:36:40.325Z,7.12
2023-03-20T01:40:40.471Z,5.4
2023-03-20T01:44:40.487Z,5.6
2023-03-20T01:48:40.511Z,5.22
2023-03-20T01:52:40.628Z,8.07
2023-03-20T01:56:39.501Z,8.32
2023-03-20T02:00:40.745Z,9.65
2023-03-20T02:04:40.326Z,8.3
2023-03-20T02:08:40.338Z,4.43
2023-03-20T02:12:40.979Z,5.93
2023-03-20T02:16:40.714Z,6.25
2023-03-20T02:20:40.328Z,5.85
2023-03-20T02:24:40.043Z,7.57
2023-03-20T02:28:40.689Z,6.43
2023-03-20T02:32:40.793Z,6.55
2023-03-20T02:36:40.646Z,6.4
2023-03-20T02:40:40.820Z,7.93
2023-03-20T02:44:40.540Z,12.37
2023-03-20T02:48:40.644Z,9.4
2023-03-20T02:52:40.692Z,8.8
2023-03-20T02:56:40.561Z,10.18
2023-03-20T03:00:40.653Z,12.98
2023-03-20T03:04:40.896Z,8.52
2023-03-20T03:08:40.522Z,7.07
2023-03-20T03:12:40.781Z,9.65
2023-03-20T03:16:40.541Z,10.6
2023-03-20T03:20:40.538Z,8.45
2023-03-20T03:24:41.978Z,10.65
2023-03-20T03:28:40.849Z,7.05
2023-03-20T03:32:40.936Z,7.65
2023-03-20T03:36:40.535Z,11.18
2023-03-20T03:40:40.465Z,10.25
2023-03-20T03:44:40.452Z,8.45
2023-03-20T03:48:40.447Z,10.43
2023-03-20T03:52:40.837Z,10.43
2023-03-20T03:56:40.526Z,9.73
2023-03-20T04:00:40.558Z,8.6
2023-03-20T04:04:40.542Z,6.55
2023-03-20T04:08:40.528Z,9.65
2023-03-20T04:12:40.359Z,8.85
2023-03-20T04:16:40.271Z,7.5
2023-03-20T04:20:40.410Z,9.93
2023-03-20T04:24:40.497Z,11.38
2023-03-20T04:28:40.740Z,8.65
2023-03-20T04:32:40.612Z,8.93
2023-03-20T04:36:40.284Z,9.45
2023-03-20T04:40:40.303Z,8.98
2023-03-20T04:44:40.315Z,13.1
2023-03-20T04:48:40.411Z,7.57
2023-03-20T04:52:40.358Z,7.95
2023-03-20T04:56:40.646Z,7.47
2023-03-20T05:00:40.784Z,7.8
2023-03-20T05:04:40.399Z,7.65
2023-03-20T05:08:40.617Z,9.35
2023-03-20T05:12:40.616Z,9.15
2023-03-20T05:16:40.298Z,10.88
2023-03-20T05:20:40.725Z,7.72
2023-03-20T05:24:40.599Z,8.65
2023-03-20T05:28:39.433Z,7.6
2023-03-20T05:32:40.578Z,9.98
2023-03-20T05:36:40.512Z,6.37
2023-03-20T05:40:40.384Z,6.7
2023-03-20T05:44:41.251Z,6.35
2023-03-20T05:48:40.593Z,9.43
2023-03-20T05:52:41.037Z,6.2
2023-03-20T05:56:40.440Z,12.23
2023-03-20T06:00:40.641Z,7
2023-03-20T06:04:40.424Z,8.88
2023-03-20T06:08:40.611Z,8.25
2023-03-20T06:12:40.463Z,10.35
2023-03-20T06:16:40.571Z,8.15
2023-03-20T06:20:40.518Z,10.32
2023-03-20T06:24:40.803Z,9.27
2023-03-20T06:28:40.706Z,8.65
2023-03-20T06:32:40.553Z,6.47
2023-03-20T06:36:41.833Z,6.2
2023-03-20T06:40:40.689Z,8.43
2023-03-20T06:44:40.700Z,6.68
2023-03-20T06:48:40.567Z,5.82
2023-03-20T06:52:40.535Z,6.55
2023-03-20T06:56:39.730Z,6.12
2023-03-20T07:00:40.846Z,9.68
2023-03-20T07:04:40.689Z,6.78
2023-03-20T07:08:40.587Z,6.7
2023-03-20T07:12:39.870Z,7.6
2023-03-20T07:16:40.602Z,6.6
2023-03-20T07:20:40.511Z,6.93
2023-03-20T07:24:40.771Z,7.62
2023-03-20T07:28:40.588Z,13.35
2023-03-20T07:32:40.840Z,7.37
2023-03-20T07:36:40.325Z,7.2
2023-03-20T07:40:41.294Z,8.4
2023-03-20T07:44:40.528Z,9
2023-03-20T07:48:40.960Z,9.2
2023-03-20T07:52:40.520Z,10.73
2023-03-20T07:56:40.554Z,10.13
2023-03-20T08:00:40.741Z,7.57
2023-03-20T08:04:40.679Z,10.25
2023-03-20T08:08:40.786Z,11.43
2023-03-20T08:12:40.881Z,10
2023-03-20T08:16:40.704Z,8.55
2023-03-20T08:20:40.805Z,9.45
2023-03-20T08:24:40.236Z,7.55
2023-03-20T08:28:47.653Z,10.1
2023-03-20T08:32:40.518Z,9.5
2023-03-20T08:36:40.572Z,10.73
2023-03-20T08:40:40.570Z,8.45
2023-03-20T08:44:40.415Z,11.68
2023-03-20T08:48:40.566Z,12.07
2023-03-20T08:52:40.405Z,9.43
2023-03-20T08:56:40.614Z,12.55
2023-03-20T09:00:39.710Z,7.22
2023-03-20T09:04:40.417Z,8.63
2023-03-20T09:08:40.559Z,11.82
2023-03-20T09:12:41.088Z,8.27
2023-03-20T09:16:40.641Z,10.48
2023-03-20T09:20:40.576Z,15.57
2023-03-20T09:24:40.403Z,17.77
2023-03-20T09:28:40.741Z,19.27
2023-03-20T09:32:41.194Z,18.98
2023-03-20T09:36:40.374Z,24.15
2023-03-20T09:40:40.622Z,27.4
2023-03-20T09:44:41.044Z,35.22
2023-03-20T09:48:40.565Z,27.9
2023-03-20T09:52:40.574Z,28.73
2023-03-20T09:56:40.604Z,32.58
2023-03-20T10:00:40.622Z,32.83
2023-03-20T10:04:40.721Z,30.25
2023-03-20T10:08:40.452Z,32.95
2023-03-20T10:12:40.600Z,34.3
2023-03-20T10:16:40.633Z,31.7
2023-03-20T10:20:40.579Z,21.87
2023-03-20T10:24:40.287Z,21.33
2023-03-20T10:28:40.836Z,21.45
2023-03-20T10:32:41.133Z,21.7
2023-03-20T10:36:40.411Z,27.83
2023-03-20T10:40:39.739Z,25.5
2023-03-20T10:44:40.667Z,30.1
2023-03-20T10:48:40.601Z,34.03
2023-03-20T10:52:40.287Z,33.63
2023-03-20T10:56:40.546Z,36.63
2023-03-20T11:00:40.809Z,28.9
2023-03-20T11:04:40.818Z,30.4
2023-03-20T11:08:40.511Z,28.87
2023-03-20T11:12:40.516Z,29.48
2023-03-20T11:16:40.782Z,25.48
2023-03-20T11:20:40.597Z,36.7
2023-03-20T11:24:39.986Z,41.05
2023-03-20T11:28:40.730Z,36.22
2023-03-20T11:32:40.653Z,43.05
2023-03-20T11:36:40.430Z,44.95
2023-03-20T11:40:40.533Z,49.1
2023-03-20T11:44:40.595Z,54.78
2023-03-20T11:48:41.256Z,61.03
2023-03-20T11:52:40.478Z,57.55
2023-03-20T11:56:40.351Z,61.67
2023-03-20T12:00:40.644Z,81.63
2023-03-20T12:04:40.704Z,78.78
2023-03-20T12:08:40.532Z,76.18
2023-03-20T12:12:40.597Z,91.72
2023-03-20T12:16:40.659Z,87.12
2023-03-20T12:20:40.857Z,85.25
2023-03-20T12:24:40.324Z,86.78
2023-03-20T12:28:40.997Z,71.8
2023-03-20T12:32:40.582Z,70.95
2023-03-20T12:36:40.320Z,57.15
2023-03-20T12:40:40.986Z,64.22
2023-03-20T12:44:40.803Z,52.47
2023-03-20T12:48:40.924Z,56.37
2023-03-20T12:52:40.542Z,43.7
2023-03-20T12:56:40.812Z,50.8
2023-03-20T13:00:41.099Z,49.28
2023-03-20T13:04:40.483Z,42.1
2023-03-20T13:08:39.557Z,35.28
2023-03-20T13:12:41.122Z,34.97
2023-03-20T13:16:41.206Z,32.7
2023-03-20T13:20:40.553Z,28.55
2023-03-20T13:24:40.733Z,24.85
2023-03-20T13:28:40.636Z,26.83
2023-03-20T13:32:40.441Z,23.3
2023-03-20T13:36:40.396Z,33.2
2023-03-20T13:40:40.982Z,20.52
2023-03-20T13:44:40.797Z,23.08
2023-03-20T13:48:40.520Z,27.52
2023-03-20T13:52:40.557Z,26.95
2023-03-20T13:56:40.644Z,29.98
2023-03-20T14:00:40.940Z,31.87
2023-03-20T14:04:40.530Z,27.6
2023-03-20T14:08:40.584Z,26.65
2023-03-20T14:12:40.578Z,31.92
2023-03-20T14:16:40.310Z,27.55
2023-03-20T14:20:40.717Z,28.35
2023-03-20T14:24:41.228Z,26.05
2023-03-20T14:28:40.580Z,29.58
2023-03-20T14:32:40.811Z,26.35
2023-03-20T14:36:40.769Z,26.2
2023-03-20T14:40:40.541Z,29.77
2023-03-20T14:44:43.080Z,29.3
2023-03-20T14:48:40.307Z,28.98
2023-03-20T14:52:40.501Z,28.33
2023-03-20T14:56:40.259Z,25.33
2023-03-20T15:00:40.682Z,28.6
2023-03-20T15:04:40.581Z,34.42
2023-03-20T15:08:40.578Z,30.1
2023-03-20T15:12:40.573Z,25.83
2023-03-20T15:16:41.302Z,31.5
2023-03-20T15:20:40.795Z,32.28
2023-03-20T15:24:40.469Z,32.53
2023-03-20T15:28:41.018Z,32.67
2023-03-20T15:32:40.712Z,28.92
2023-03-20T15:36:40.400Z,31.23
2023-03-20T15:40:50.699Z,31.35
2023-03-20T15:44:40.633Z,28.25
2023-03-20T15:48:40.568Z,28.48
2023-03-20T15:52:40.922Z,36.38
2023-03-20T15:56:40.625Z,31.42
2023-03-20T16:00:40.610Z,37.45
2023-03-20T16:04:40.869Z,41.03
2023-03-20T16:08:40.735Z,36.33
2023-03-20T16:12:40.633Z,41.85
2023-03-20T16:16:40.591Z,29.8
2023-03-20T16:20:40.652Z,37.08
2023-03-20T16:24:40.674Z,33.65
2023-03-20T16:28:41.037Z,34.55
2023-03-20T16:32:40.432Z,36.45
2023-03-20T16:36:39.837Z,35.5
2023-03-20T16:40:40.945Z,34.1
2023-03-20T16:44:40.539Z,33.25
2023-03-20T16:48:40.727Z,33.53
2023-03-20T16:52:40.905Z,33.25
2023-03-20T16:56:40.484Z,37.53
2023-03-20T17:00:40.752Z,37.38
2023-03-20T17:04:40.743Z,34.17
2023-03-20T17:08:40.616Z,41.28
2023-03-20T17:12:41.204Z,33.97
2023-03-20T17:16:40.622Z,34.08
2023-03-20T17:20:40.793Z,38.78
2023-03-20T17:24:40.467Z,39.13
2023-03-20T17:28:40.499Z,37.97
2023-03-20T17:32:41.072Z,36.75
2023-03-20T17:36:41.453Z,39.45
2023-03-20T17:40:40.399Z,35.6
2023-03-20T17:44:40.821Z,42.4
2023-03-20T17:48:40.650Z,37.45
2023-03-20T17:52:40.471Z,33.1
2023-03-20T17:56:40.311Z,40.12
2023-03-20T18:00:40.898Z,36.3
2023-03-20T18:04:40.135Z,39.42
2023-03-20T18:08:41.166Z,40.25
2023-03-20T18:12:40.688Z,42.22
2023-03-20T18:16:40.448Z,38.25
2023-03-20T18:20:40.563Z,39.58
2023-03-20T18:24:41.068Z,37.63
2023-03-20T18:28:40.698Z,39.67
2023-03-20T18:32:40.773Z,45.6
2023-03-20T18:36:41.119Z,43.85
2023-03-20T18:40:40.596Z,43.63
2023-03-20T18:44:40.579Z,40.38
2023-03-20T18:48:40.451Z,50.92
2023-03-20T18:52:40.450Z,44.75
2023-03-20T18:56:40.664Z,42.75
2023-03-20T19:00:40.898Z,41.88
2023-03-20T19:04:40.451Z,48.7
2023-03-20T19:08:40.543Z,47.13
2023-03-20T19:12:40.729Z,47.22
2023-03-20T19:16:40.394Z,53.35
2023-03-20T19:20:41.095Z,42.88
2023-03-20T19:24:40.483Z,46.05
2023-03-20T19:28:41.614Z,46.13
2023-03-20T19:32:40.464Z,47.03
2023-03-20T19:36:40.579Z,44
2023-03-20T19:40:43.165Z,44.4
2023-03-20T19:44:41.172Z,46.03
2023-03-20T19:48:50.399Z,43.2
2023-03-20T19:52:40.504Z,48.7
2023-03-20T19:56:40.394Z,47.62
2023-03-20T20:00:57.723Z,51.97
2023-03-20T20:04:40.793Z,50.33
2023-03-20T20:08:48.844Z,46.03
2023-03-20T20:12:40.536Z,50.3
2023-03-20T20:16:40.782Z,50.22
2023-03-20T20:21:19.595Z,50.58
2023-03-20T20:24:40.465Z,56.55
2023-03-20T20:28:40.876Z,48.95
2023-03-20T20:32:40.358Z,47.88
2023-03-20T20:37:32.207Z,50.47
2023-03-20T20:40:40.490Z,46.6
2023-03-20T20:44:41.238Z,48.22
2023-03-20T20:48:40.431Z,54.95
2023-03-20T20:52:41.575Z,57.7
2023-03-20T20:56:40.308Z,54.28
2023-03-20T21:00:50.122Z,56.4
2023-03-20T21:04:40.532Z,51.05
2023-03-20T21:08:40.261Z,49.33
2023-03-20T21:12:55.892Z,55.97
2023-03-20T21:16:40.350Z,63.53
2023-03-20T21:20:40.216Z,64.55
2023-03-20T21:24:40.802Z,56.08
2023-03-20T21:28:40.532Z,60.47
2023-03-20T21:32:41.089Z,55.75
2023-03-20T21:36:40.936Z,62.3
2023-03-20T21:40:40.269Z,62.08
2023-03-20T21:49:29.735Z,54.05
2023-03-20T22:01:23.274Z,57.58
2023-03-20T22:09:38.868Z,62.95
2023-03-20T22:13:29.610Z,61.08
2023-03-20T22:33:22.729Z,55.17
2023-03-20T22:44:58.955Z,49.33
2023-03-20T22:48:40.905Z,47.65
2023-03-20T22:52:49.117Z,52
2023-03-20T22:56:40.427Z,57
2023-03-20T23:04:40.731Z,50.88
2023-03-20T23:08:49.404Z,50.08
2023-03-20T23:12:42.865Z,48.55
2023-03-20T23:16:40.750Z,47.22
2023-03-20T23:20:41.231Z,49.8
2023-03-20T23:24:40.481Z,47.25
2023-03-20T23:28:40.608Z,43.45
2023-03-20T23:32:40.740Z,51.83
2023-03-20T23:36:40.578Z,45.97
2023-03-20T23:40:40.757Z,45.08
2023-03-20T23:44:49.901Z,52.58
2023-03-20T23:48:40.763Z,47.8
2023-03-20T23:52:45.963Z,41.58
2023-03-20T23:56:40.491Z,40.4
